Indianapolis, IN

11:17 PM EDT on September 19, 2019 (GMT -0400)
Indianapolis Terry

Weather History for KTYQ - May, 2019

Change the Weather History Date:

Sunday, May 12, 2019

  Actual Average (KEYE) Record (KEYE)
Temperature  
Mean Temperature 44 °F -  
Max Temperature 46 °F 69 °F 85 °F (2011)
Min Temperature 41 °F 51 °F 39 °F (2013)
Degree Days  
Heating Degree Days 22    
Moisture  
Dew Point 44 °F    
Average Humidity 100    
Maximum Humidity 100    
Minimum Humidity 100    
Precipitation  
Precipitation 0.10 in - - ()
Sea Level Pressure  
Sea Level Pressure 29.80 in    
Wind  
Wind Speed 8 mph (NNE)    
Max Wind Speed 17 mph    
Max Gust Speed 23 mph    
Visibility 5 miles    
Events Rain    
Averages and records for this station are not official NWS values.
T = Trace of Precipitation, MM = Missing Value Source: NWS Daily Summary

Daily Weather History Graph

Daily Weather History Graph

Search for Another Location

Airport or City:

Astronomy

May. 12, 2019 Rise Set
Actual Time 6:32 AM EDT 8:50 PM EDT
Civil Twilight 6:02 AM EDT 9:20 PM EDT
Nautical Twilight 5:25 AM EDT 9:58 PM EDT
Astronomical Twilight 4:43 AM EDT 10:39 PM EDT
Moon 1:52 PM EDT (5/12) 3:12 AM EDT (5/12)
Length of Visible Light 15h 18m
Length of Day
14h 17m
First Quarter, 57% of the Moon is Illuminated
May 12
First Quarter
May 18
Full
May 26
Last Quarter
Jun 3
New
Jun 10
First Quarter

Hourly Weather History & Observations

Time (EDT) Temp. Windchill Dew Point Humidity Pressure Visibility Wind Dir Wind Speed Gust Speed Precip Events Conditions
12:15 AM 42.8 °F 37.0 °F 42.8 °F 100% 29.86 in 10.0 mi NE 10.4 mph 19.6 mph N/A   Overcast
12:35 AM 42.8 °F 36.6 °F 42.8 °F 100% 29.86 in 10.0 mi NE 11.5 mph - N/A   Overcast
12:55 AM 42.8 °F 35.8 °F 42.8 °F 100% 29.85 in 10.0 mi NE 13.8 mph 19.6 mph N/A   Overcast
1:15 AM 42.8 °F 34.8 °F 42.8 °F 100% 29.83 in 10.0 mi ENE 17.3 mph 23.0 mph N/A   Overcast
1:35 AM 42.8 °F 36.2 °F 42.8 °F 100% 29.83 in 10.0 mi NE 12.7 mph 18.4 mph N/A   Overcast
1:55 AM 42.4 °F 35.3 °F 42.4 °F 100% 29.83 in 10.0 mi NE 13.8 mph 20.7 mph N/A   Overcast
2:15 AM 42.3 °F 35.5 °F 42.3 °F 100% 29.82 in 5.0 mi NE 12.7 mph - N/A   Drizzle
2:35 AM 42.3 °F 35.9 °F 42.3 °F 100% 29.82 in 7.0 mi NE 11.5 mph 17.3 mph N/A Rain Light Rain
2:55 AM 42.4 °F 36.1 °F 42.4 °F 100% 29.81 in 5.0 mi NE 11.5 mph 16.1 mph N/A Rain Rain
3:15 AM 42.6 °F 36.3 °F 42.6 °F 100% 29.81 in 4.0 mi NE 11.5 mph - 0.01 in   Drizzle
3:35 AM 42.8 °F 36.6 °F 42.8 °F 100% 29.80 in 5.0 mi NE 11.5 mph - 0.01 in Rain Light Rain
3:55 AM 42.8 °F 37.5 °F 42.8 °F 100% 29.80 in 5.0 mi NE 9.2 mph - 0.01 in   Light Drizzle
4:15 AM 42.8 °F 37.0 °F 42.8 °F 100% 29.80 in 7.0 mi NE 10.4 mph - N/A   Overcast
4:35 AM 42.4 °F 36.5 °F 42.4 °F 100% 29.79 in 10.0 mi NE 10.4 mph 16.1 mph N/A   Overcast
4:55 AM 42.1 °F 36.1 °F 42.1 °F 100% 29.79 in 10.0 mi NE 10.4 mph - N/A   Overcast
5:15 AM 42.1 °F 36.6 °F 42.1 °F 100% 29.78 in 10.0 mi NE 9.2 mph - N/A   Overcast
5:35 AM 41.9 °F 36.9 °F 41.9 °F 100% 29.79 in 7.0 mi NE 8.1 mph - N/A   Overcast
5:55 AM 41.9 °F 37.5 °F 41.9 °F 100% 29.79 in 7.0 mi NE 6.9 mph - N/A   Overcast
6:15 AM 42.1 °F 37.1 °F 42.1 °F 100% 29.79 in 5.0 mi NE 8.1 mph - N/A   Overcast
6:35 AM 42.1 °F 38.4 °F 42.1 °F 100% 29.79 in 4.0 mi NNE 5.8 mph - N/A   Overcast
6:55 AM 42.1 °F 37.7 °F 42.1 °F 100% 29.80 in 4.0 mi NNE 6.9 mph - N/A   Overcast
7:15 AM 42.1 °F 38.4 °F 42.1 °F 100% 29.81 in 1.8 mi NNE 5.8 mph - N/A   Overcast
7:35 AM 42.1 °F 37.7 °F 42.1 °F 100% 29.80 in 1.5 mi NNE 6.9 mph - N/A   Light Drizzle
7:55 AM 42.1 °F 37.7 °F 42.1 °F 100% 29.81 in 1.8 mi NE 6.9 mph - N/A Rain Light Rain
8:15 AM 42.3 °F 37.9 °F 42.3 °F 100% 29.81 in 2.0 mi NNE 6.9 mph - N/A Rain Light Rain
8:35 AM 42.3 °F 36.3 °F 42.3 °F 100% 29.81 in 2.5 mi NE 10.4 mph - N/A   Overcast
8:55 AM 42.8 °F 37.5 °F 42.8 °F 100% 29.80 in 3.0 mi NNE 9.2 mph - N/A   Overcast
9:15 AM 42.6 °F 37.2 °F 42.6 °F 100% 29.80 in 2.5 mi NNE 9.2 mph - N/A   Overcast
9:35 AM 43.0 °F 38.2 °F 43.0 °F 100% 29.81 in 4.0 mi NE 8.1 mph - N/A   Overcast
9:55 AM 42.6 °F 37.8 °F 42.6 °F 100% 29.81 in 1.8 mi NNE 8.1 mph - N/A   Overcast
10:15 AM 42.8 °F 38.0 °F 42.8 °F 100% 29.81 in 2.0 mi NNE 8.1 mph - 0.01 in Rain Light Rain
10:35 AM 42.8 °F 37.5 °F 42.8 °F 100% 29.80 in 2.0 mi NNE 9.2 mph - 0.01 in   Light Drizzle
10:55 AM 43.2 °F 39.0 °F 43.2 °F 100% 29.80 in 3.0 mi NNE 6.9 mph - 0.01 in   Overcast
11:15 AM 43.0 °F 38.2 °F 43.0 °F 100% 29.80 in 2.5 mi NE 8.1 mph - N/A   Overcast
11:35 AM 43.3 °F 38.1 °F 43.3 °F 100% 29.79 in 3.0 mi NE 9.2 mph - 0.02 in Rain Light Rain
11:55 AM 43.5 °F 39.4 °F 43.5 °F 100% 29.80 in 5.0 mi NE 6.9 mph - 0.02 in Rain Rain
12:15 PM 43.7 °F 41.1 °F 43.7 °F 100% 29.80 in 5.0 mi ENE 4.6 mph - 0.01 in Rain Rain
12:35 PM 43.7 °F 39.1 °F 43.7 °F 100% 29.80 in 7.0 mi NNE 8.1 mph - 0.02 in Rain Light Rain
12:55 PM 44.2 °F 40.3 °F 44.2 °F 100% 29.80 in 10.0 mi NE 6.9 mph - 0.02 in Rain Light Rain
1:15 PM 44.8 °F 42.4 °F 44.8 °F 100% 29.81 in 10.0 mi NE 4.6 mph - N/A   Light Drizzle
1:35 PM 44.8 °F 42.4 °F 44.8 °F 100% 29.80 in 10.0 mi NE 4.6 mph - N/A   Overcast
1:55 PM 45.0 °F 41.8 °F 45.0 °F 100% 29.79 in 10.0 mi NE 5.8 mph - N/A   Overcast
2:15 PM 45.0 °F 43.5 °F 45.0 °F 100% 29.79 in 10.0 mi NE 3.5 mph - N/A Rain Rain
2:35 PM 45.3 °F 43.0 °F 45.3 °F 100% 29.79 in 10.0 mi NE 4.6 mph - N/A   Light Drizzle
2:55 PM 45.0 °F 41.8 °F 45.0 °F 100% 29.79 in 10.0 mi NNE 5.8 mph - N/A   Overcast
3:15 PM 45.3 °F 42.3 °F 45.3 °F 100% 29.79 in 10.0 mi NE 5.8 mph - N/A   Overcast
3:35 PM 45.1 °F 42.8 °F 45.1 °F 100% 29.79 in 5.0 mi NE 4.6 mph - N/A   Drizzle
3:55 PM 45.0 °F 42.6 °F 45.0 °F 100% 29.79 in 3.0 mi NE 4.6 mph - N/A   Drizzle
4:15 PM 45.5 °F - 45.5 °F 100% 29.78 in 3.0 mi Calm Calm - N/A   Drizzle
4:35 PM 46.0 °F 44.8 °F 46.0 °F 100% 29.78 in 4.0 mi ENE 3.5 mph - N/A Rain Light Rain
4:55 PM 45.7 °F - 45.7 °F 100% 29.78 in 4.0 mi Calm Calm - N/A   Light Drizzle
5:35 PM 45.7 °F - 45.7 °F 100% 29.78 in 3.0 mi Calm Calm - N/A   Light Drizzle
5:55 PM 45.9 °F - 45.9 °F 100% 29.78 in 2.0 mi Calm Calm - N/A   Light Drizzle
6:15 PM 45.7 °F - 45.7 °F 100% 29.78 in 5.0 mi Calm Calm - N/A   Overcast
6:35 PM 45.7 °F 44.4 °F 45.7 °F 100% 29.77 in 2.5 mi NNE 3.5 mph - N/A   Drizzle
6:55 PM 46.0 °F - 46.0 °F 100% 29.77 in 2.5 mi Calm Calm - 0.01 in   Light Drizzle
7:15 PM 45.9 °F 42.9 °F 45.9 °F 100% 29.79 in 2.5 mi West 5.8 mph - N/A Rain Rain
7:35 PM 45.7 °F - 45.7 °F 100% 29.78 in 4.0 mi Calm Calm - N/A Rain Rain
7:55 PM 45.5 °F - 45.5 °F 100% 29.78 in 1.5 mi Calm Calm - 0.01 in   Heavy Drizzle
8:15 PM 45.5 °F 44.2 °F 45.5 °F 100% 29.78 in 1.8 mi WNW 3.5 mph - N/A   Drizzle
8:35 PM 45.5 °F 41.8 °F 45.5 °F 100% 29.79 in 1.8 mi West 6.9 mph - N/A   Heavy Drizzle
8:55 PM 45.3 °F 43.0 °F 45.3 °F 100% 29.79 in 4.0 mi WNW 4.6 mph - 0.01 in   Drizzle
9:15 PM 45.5 °F 44.2 °F 45.5 °F 100% 29.78 in 4.0 mi WNW 3.5 mph - N/A   Light Drizzle
9:35 PM 45.3 °F 43.0 °F 45.3 °F 100% 29.79 in 5.0 mi WNW 4.6 mph - N/A   Light Drizzle
9:55 PM 45.5 °F 43.2 °F 45.5 °F 100% 29.79 in 4.0 mi WNW 4.6 mph - N/A Rain Rain
10:15 PM 45.5 °F 42.5 °F 45.5 °F 100% 29.80 in 3.0 mi West 5.8 mph - N/A   Drizzle
10:35 PM 45.5 °F 43.2 °F 45.5 °F 100% 29.80 in 2.5 mi WNW 4.6 mph - 0.01 in   Drizzle
10:55 PM 45.5 °F 42.5 °F 45.5 °F 100% 29.80 in 2.5 mi WNW 5.8 mph - 0.01 in   Drizzle
11:15 PM 45.3 °F - 45.3 °F 100% 29.80 in 2.5 mi Calm Calm - N/A   Light Drizzle
11:35 PM 45.5 °F 43.2 °F 45.5 °F 100% 29.80 in 3.0 mi West 4.6 mph - N/A   Overcast
11:55 PM 45.5 °F - 45.5 °F 100% 29.80 in 5.0 mi Calm Calm - N/A   Overcast